Terminal Aerodrome Forecast
Issued by NWS

Home | Current Version | Previous Version | Text Only | Print | Product List | Glossary On
Versions: 1 2 3 4 5 6 7 8 9 10 11 12
000
FTUS43 KGRR 291100
TAFLAN
TAF
KLAN 291140Z 2912/3012 19010KT P6SM SCT150
     FM291400 19015G25KT P6SM OVC150
     FM291900 20024G34KT P6SM -SHRA BKN060
     FM292200 20025G35KT 5SM -SHRA BR OVC025
     FM300100 23020G30KT 6SM -DZ BR OVC009
     FM300700 27014G22KT P6SM BKN025=

USA.gov is the U.S. government's official web portal to all federal, state and local government web resources and services.